createdAt,value
2023-03-05T00:02:37.865Z,10.13
2023-03-05T00:07:41.580Z,7.60
2023-03-05T00:12:46.853Z,16.00
2023-03-05T00:17:50.567Z,10.70
2023-03-05T00:22:54.225Z,8.55
2023-03-05T00:27:59.618Z,9.05
2023-03-05T00:33:03.268Z,9.57
2023-03-05T00:38:06.940Z,12.18
2023-03-05T00:43:12.604Z,10.35
2023-03-05T00:48:16.248Z,10.87
2023-03-05T00:53:20.362Z,11.63
2023-03-05T00:58:25.755Z,10.98
2023-03-05T01:03:29.636Z,11.17
2023-03-05T01:08:33.311Z,7.15
2023-03-05T01:13:38.660Z,14.40
2023-03-05T01:18:42.332Z,12.27
2023-03-05T01:23:45.943Z,10.70
2023-03-05T01:28:51.227Z,16.17
2023-03-05T01:33:55.168Z,11.93
2023-03-05T01:38:59.092Z,9.60
2023-03-05T01:44:04.532Z,11.25
2023-03-05T01:49:16.587Z,14.43
2023-03-05T01:54:23.403Z,13.73
2023-03-05T01:59:29.092Z,10.73
2023-03-05T02:04:38.869Z,16.27
2023-03-05T02:09:43.007Z,12.52
2023-03-05T02:14:51.888Z,12.93
2023-03-05T02:19:57.775Z,10.15
2023-03-05T02:25:03.706Z,12.30
2023-03-05T02:30:08.561Z,15.75
2023-03-05T02:35:12.198Z,10.82
2023-03-05T02:40:17.912Z,15.20
2023-03-05T02:45:21.727Z,14.90
2023-03-05T02:50:25.726Z,17.90
2023-03-05T02:55:31.058Z,22.13
2023-03-05T03:00:34.824Z,17.08
2023-03-05T03:05:38.474Z,13.05
2023-03-05T03:10:43.812Z,17.35
2023-03-05T03:15:47.673Z,12.63
2023-03-05T03:20:51.310Z,10.45
2023-03-05T03:25:56.604Z,12.90
2023-03-05T03:31:00.241Z,16.00
2023-03-05T03:36:05.183Z,15.55
2023-03-05T03:41:10.584Z,14.43
2023-03-05T03:46:14.248Z,12.03
2023-03-05T03:51:17.915Z,9.88
2023-03-05T03:56:24.352Z,9.40
2023-03-05T04:01:28.048Z,14.52
2023-03-05T04:06:31.781Z,10.90
2023-03-05T04:11:37.498Z,12.55
2023-03-05T04:16:41.125Z,10.97
2023-03-05T04:21:44.748Z,13.60
2023-03-05T04:26:50.046Z,13.88
2023-03-05T04:31:53.653Z,12.65
2023-03-05T04:36:57.313Z,10.38
2023-03-05T04:42:02.819Z,14.73
2023-03-05T04:47:06.703Z,9.73
2023-03-05T04:52:11.906Z,13.35
2023-03-05T04:57:17.203Z,13.88
2023-03-05T05:02:20.855Z,16.52
2023-03-05T05:07:24.490Z,14.70
2023-03-05T05:12:32.982Z,13.18
2023-03-05T05:17:36.760Z,13.13
2023-03-05T05:22:40.430Z,12.88
2023-03-05T05:27:45.712Z,13.30
2023-03-05T05:32:49.340Z,12.00
2023-03-05T05:37:53.637Z,13.90
2023-03-05T05:42:58.892Z,12.52
2023-03-05T05:48:02.549Z,10.07
2023-03-05T05:53:06.197Z,14.27
2023-03-05T05:58:11.464Z,13.00
2023-03-05T06:03:15.288Z,15.05
2023-03-05T06:08:19.239Z,17.83
2023-03-05T06:13:24.547Z,20.23
2023-03-05T06:18:28.303Z,19.20
2023-03-05T06:23:31.954Z,13.73
2023-03-05T06:28:37.276Z,17.27
2023-03-05T06:33:41.603Z,17.58
2023-03-05T06:38:46.524Z,15.75
2023-03-05T06:43:52.648Z,18.90
2023-03-05T06:48:57.359Z,14.45
2023-03-05T06:54:02.814Z,17.95
2023-03-05T06:59:08.484Z,21.23
2023-03-05T07:04:13.353Z,18.03
2023-03-05T07:09:17.173Z,17.30
2023-03-05T07:14:22.495Z,17.77
2023-03-05T07:19:26.135Z,23.98
2023-03-05T07:24:30.481Z,25.42
2023-03-05T07:29:35.765Z,13.10
2023-03-05T07:34:39.412Z,17.80
2023-03-05T07:39:43.226Z,17.58
2023-03-05T07:44:48.956Z,22.48
2023-03-05T07:49:52.656Z,18.70
2023-03-05T07:54:56.275Z,24.10
2023-03-05T08:00:01.559Z,21.77
2023-03-05T08:05:05.608Z,25.25
2023-03-05T08:10:10.616Z,19.70
2023-03-05T08:15:16.012Z,19.02
2023-03-05T08:20:19.962Z,18.77
2023-03-05T08:25:23.719Z,17.08
2023-03-05T08:30:29.046Z,19.65
2023-03-05T08:35:32.883Z,16.52
2023-03-05T08:40:36.588Z,20.38
2023-03-05T08:45:42.411Z,14.82
2023-03-05T08:50:46.061Z,16.60
2023-03-05T08:55:55.688Z,22.75
2023-03-05T09:01:01.955Z,12.88
2023-03-05T09:06:07.305Z,4.95
2023-03-05T09:11:13.337Z,3.95
2023-03-05T09:16:20.178Z,3.08
2023-03-05T09:21:23.919Z,4.97
2023-03-05T09:26:27.808Z,1.95
2023-03-05T09:31:33.154Z,3.65
2023-03-05T09:36:36.863Z,2.35
2023-03-05T09:42:03.256Z,3.97
2023-03-05T09:47:22.511Z,2.50
2023-03-05T09:52:35.497Z,6.18
2023-03-05T09:57:43.183Z,4.45
2023-03-05T10:02:52.957Z,4.53
2023-03-05T10:08:01.205Z,6.53
2023-03-05T10:13:12.440Z,10.32
2023-03-05T10:18:25.042Z,8.25
2023-03-05T10:24:06.620Z,6.05
2023-03-05T10:29:28.542Z,8.48
2023-03-05T10:35:00.170Z,6.80
2023-03-05T10:40:16.835Z,6.10
2023-03-05T10:50:29.014Z,5.13
2023-03-05T10:55:32.915Z,10.82
2023-03-05T11:00:36.673Z,7.47
2023-03-05T11:05:47.592Z,9.70
2023-03-05T11:11:04.473Z,6.85
2023-03-05T11:16:17.060Z,6.43
2023-03-05T11:21:25.952Z,7.15
2023-03-05T11:26:29.750Z,7.75
2023-03-05T11:31:34.267Z,6.40
2023-03-05T11:36:41.098Z,6.38
2023-03-05T11:41:48.628Z,8.45
2023-03-05T11:46:57.057Z,10.35
2023-03-05T11:52:12.011Z,11.35
2023-03-05T11:57:17.720Z,9.63
2023-03-05T12:02:24.834Z,10.20
2023-03-05T12:07:37.323Z,8.32
2023-03-05T12:12:48.318Z,10.38
2023-03-05T12:18:05.756Z,9.18
2023-03-05T12:23:15.219Z,9.38
2023-03-05T12:28:40.121Z,11.35
2023-03-05T12:33:44.971Z,11.10
2023-03-05T12:38:51.188Z,9.40
2023-03-05T12:44:26.552Z,12.57
2023-03-05T12:49:36.334Z,7.05
2023-03-05T12:54:44.209Z,10.68
2023-03-05T12:59:52.066Z,10.30
2023-03-05T13:05:00.859Z,11.60
2023-03-05T13:10:06.884Z,12.38
2023-03-05T13:15:17.161Z,11.63
2023-03-05T13:20:30.754Z,13.35
2023-03-05T13:25:36.076Z,9.23
2023-03-05T13:30:40.165Z,12.15
2023-03-05T13:35:46.737Z,16.85
2023-03-05T13:41:06.521Z,10.75
2023-03-05T13:46:10.270Z,16.88
2023-03-05T13:51:16.975Z,14.23
2023-03-05T13:56:23.329Z,12.43
2023-03-05T14:01:31.953Z,10.07
2023-03-05T14:06:49.099Z,13.93
2023-03-05T14:12:03.366Z,12.60
2023-03-05T14:17:33.373Z,11.80
2023-03-05T14:22:39.796Z,10.07
2023-03-05T14:32:54.633Z,12.25
2023-03-05T14:43:03.997Z,11.55
2023-03-05T14:48:09.034Z,14.70
2023-03-05T14:53:18.267Z,15.20
2023-03-05T14:58:25.877Z,13.85
2023-03-05T15:03:29.591Z,13.95
2023-03-05T15:08:33.648Z,14.75
2023-03-05T15:13:38.937Z,13.48
2023-03-05T15:18:42.554Z,14.00
2023-03-05T15:23:46.146Z,11.07
2023-03-05T15:28:51.449Z,10.05
2023-03-05T15:33:55.086Z,9.90
2023-03-05T15:38:58.739Z,10.80
2023-03-05T15:44:04.025Z,9.15
2023-03-05T15:49:07.666Z,12.63
2023-03-05T15:54:11.340Z,9.55
2023-03-05T15:59:16.719Z,6.20
2023-03-05T16:04:20.408Z,6.43
2023-03-05T16:09:24.129Z,8.77
2023-03-05T16:14:31.162Z,6.93
2023-03-05T16:19:37.679Z,8.60
2023-03-05T16:24:41.460Z,7.63
2023-03-05T16:29:46.740Z,5.88
2023-03-05T16:34:50.504Z,10.85
2023-03-05T16:39:54.128Z,6.88
2023-03-05T16:44:59.387Z,8.35
2023-03-05T16:50:03.325Z,11.43
2023-03-05T16:55:07.681Z,12.55
2023-03-05T17:00:14.326Z,11.02
2023-03-05T17:05:18.085Z,7.22
2023-03-05T17:10:21.790Z,8.68
2023-03-05T17:15:27.328Z,7.38
2023-03-05T17:20:31.023Z,5.27
2023-03-05T17:25:34.674Z,9.25
2023-03-05T17:30:40.577Z,6.00
2023-03-05T17:35:44.997Z,6.50
2023-03-05T17:40:50.828Z,5.78
2023-03-05T17:45:56.177Z,6.63
2023-03-05T17:51:00.128Z,8.07
2023-03-05T17:56:06.933Z,8.32
2023-03-05T18:01:12.220Z,7.68
2023-03-05T18:06:15.945Z,6.77
2023-03-05T18:11:20.330Z,5.47
2023-03-05T18:16:25.667Z,5.90
2023-03-05T18:21:29.373Z,11.13
2023-03-05T18:26:33.040Z,5.57
2023-03-05T18:31:38.338Z,8.10
2023-03-05T18:36:42.568Z,6.43
2023-03-05T18:41:46.357Z,7.70
2023-03-05T18:46:51.672Z,13.00
2023-03-05T18:51:55.313Z,4.10
2023-03-05T18:56:58.959Z,5.13
2023-03-05T19:02:04.219Z,5.10
2023-03-05T19:07:08.026Z,5.23
2023-03-05T19:12:11.670Z,6.30
2023-03-05T19:17:18.132Z,4.53
2023-03-05T19:22:22.265Z,8.85
2023-03-05T19:27:27.131Z,4.18
2023-03-05T19:32:33.428Z,5.35
2023-03-05T19:37:37.118Z,5.45
2023-03-05T19:42:40.836Z,7.15
2023-03-05T19:47:47.088Z,5.13
2023-03-05T19:52:50.736Z,5.60
2023-03-05T19:57:54.390Z,6.55
2023-03-05T20:02:59.633Z,5.82
2023-03-05T20:08:03.286Z,5.57
2023-03-05T20:13:06.945Z,8.80
2023-03-05T20:18:12.260Z,5.50
2023-03-05T20:23:15.851Z,6.67
2023-03-05T20:28:19.535Z,6.10
2023-03-05T20:33:25.380Z,5.22
2023-03-05T20:38:29.477Z,9.80
2023-03-05T20:43:34.867Z,7.22
2023-03-05T20:48:40.161Z,6.13
2023-03-05T20:53:44.673Z,4.90
2023-03-05T20:58:48.357Z,4.57
2023-03-05T21:03:53.677Z,4.70
2023-03-05T21:08:57.607Z,5.30
2023-03-05T21:14:01.260Z,7.18
2023-03-05T21:19:06.548Z,6.30
2023-03-05T21:24:10.239Z,6.07
2023-03-05T21:29:13.890Z,7.15
2023-03-05T21:34:19.188Z,5.55
2023-03-05T21:39:22.781Z,5.87
2023-03-05T21:44:26.468Z,5.97
2023-03-05T21:49:31.759Z,6.78
2023-03-05T21:54:35.397Z,6.70
2023-03-05T21:59:41.296Z,3.78
2023-03-05T22:04:47.157Z,5.72
2023-03-05T22:09:55.112Z,8.02
2023-03-05T22:14:58.736Z,5.90
2023-03-05T22:20:04.391Z,8.48
2023-03-05T22:25:08.939Z,6.70
2023-03-05T22:30:14.271Z,4.80
2023-03-05T22:35:19.765Z,10.47
2023-03-05T22:40:23.878Z,5.63
2023-03-05T22:45:30.152Z,9.07
2023-03-05T22:50:35.443Z,5.43
2023-03-05T22:55:40.417Z,6.67
2023-03-05T23:00:44.024Z,7.35
2023-03-05T23:05:49.312Z,7.82
2023-03-05T23:10:53.577Z,6.20
2023-03-05T23:15:57.250Z,5.15
2023-03-05T23:21:02.546Z,5.00
2023-03-05T23:26:06.437Z,4.53
2023-03-05T23:31:10.121Z,5.70
2023-03-05T23:36:15.440Z,6.75
2023-03-05T23:41:19.040Z,7.90
2023-03-05T23:46:22.805Z,5.55
2023-03-05T23:51:28.121Z,6.80
2023-03-05T23:56:31.820Z,5.83
